sensor_id;sensor_type;location;lat;lon;timestamp;temperature;humidity
68922;DHT22;55959;51.244;5.724;2023-04-15T00:01:26;12.40;53.90
68922;DHT22;55959;51.244;5.724;2023-04-15T00:03:53;12.40;54.10
68922;DHT22;55959;51.244;5.724;2023-04-15T00:06:20;12.30;54.20
68922;DHT22;55959;51.244;5.724;2023-04-15T00:08:47;12.30;54.30
68922;DHT22;55959;51.244;5.724;2023-04-15T00:11:13;12.30;54.30
68922;DHT22;55959;51.244;5.724;2023-04-15T00:13:40;12.20;54.10
68922;DHT22;55959;51.244;5.724;2023-04-15T00:16:06;12.20;54.10
68922;DHT22;55959;51.244;5.724;2023-04-15T00:18:33;12.20;54.00
68922;DHT22;55959;51.244;5.724;2023-04-15T00:21:00;12.10;53.90
68922;DHT22;55959;51.244;5.724;2023-04-15T00:23:26;12.10;54.00
68922;DHT22;55959;51.244;5.724;2023-04-15T00:25:52;12.10;54.60
68922;DHT22;55959;51.244;5.724;2023-04-15T00:28:18;12.10;54.00
68922;DHT22;55959;51.244;5.724;2023-04-15T00:30:44;12.10;54.00
68922;DHT22;55959;51.244;5.724;2023-04-15T00:33:11;12.10;54.10
68922;DHT22;55959;51.244;5.724;2023-04-15T00:35:37;12.00;54.10
68922;DHT22;55959;51.244;5.724;2023-04-15T00:38:04;12.00;54.10
68922;DHT22;55959;51.244;5.724;2023-04-15T00:40:31;12.00;54.10
68922;DHT22;55959;51.244;5.724;2023-04-15T00:42:57;12.00;54.00
68922;DHT22;55959;51.244;5.724;2023-04-15T00:45:24;12.00;54.10
68922;DHT22;55959;51.244;5.724;2023-04-15T00:47:50;11.90;54.10
68922;DHT22;55959;51.244;5.724;2023-04-15T00:50:17;11.90;54.10
68922;DHT22;55959;51.244;5.724;2023-04-15T00:52:43;11.90;54.20
68922;DHT22;55959;51.244;5.724;2023-04-15T00:55:08;11.90;54.20
68922;DHT22;55959;51.244;5.724;2023-04-15T00:57:34;11.80;54.20
68922;DHT22;55959;51.244;5.724;2023-04-15T01:00:01;11.80;54.20
68922;DHT22;55959;51.244;5.724;2023-04-15T01:02:27;11.80;54.20
68922;DHT22;55959;51.244;5.724;2023-04-15T01:04:53;11.70;54.20
68922;DHT22;55959;51.244;5.724;2023-04-15T01:07:19;11.80;54.20
68922;DHT22;55959;51.244;5.724;2023-04-15T01:09:45;11.70;54.20
68922;DHT22;55959;51.244;5.724;2023-04-15T01:12:15;11.70;54.20
68922;DHT22;55959;51.244;5.724;2023-04-15T01:14:41;11.70;54.40
68922;DHT22;55959;51.244;5.724;2023-04-15T01:17:07;11.70;54.40
68922;DHT22;55959;51.244;5.724;2023-04-15T01:19:33;11.60;54.40
68922;DHT22;55959;51.244;5.724;2023-04-15T01:22:02;11.60;54.40
68922;DHT22;55959;51.244;5.724;2023-04-15T01:24:29;11.60;54.50
68922;DHT22;55959;51.244;5.724;2023-04-15T01:26:56;11.50;54.70
68922;DHT22;55959;51.244;5.724;2023-04-15T01:29:22;11.50;54.80
68922;DHT22;55959;51.244;5.724;2023-04-15T01:31:52;11.50;54.80
68922;DHT22;55959;51.244;5.724;2023-04-15T01:34:20;11.50;54.80
68922;DHT22;55959;51.244;5.724;2023-04-15T01:36:48;11.40;54.90
68922;DHT22;55959;51.244;5.724;2023-04-15T01:39:14;11.40;55.10
68922;DHT22;55959;51.244;5.724;2023-04-15T01:41:39;11.40;55.30
68922;DHT22;55959;51.244;5.724;2023-04-15T01:44:07;11.30;55.40
68922;DHT22;55959;51.244;5.724;2023-04-15T01:46:33;11.30;55.70
68922;DHT22;55959;51.244;5.724;2023-04-15T01:48:59;11.30;55.70
68922;DHT22;55959;51.244;5.724;2023-04-15T01:51:25;11.30;55.80
68922;DHT22;55959;51.244;5.724;2023-04-15T01:53:53;11.20;55.90
68922;DHT22;55959;51.244;5.724;2023-04-15T01:56:21;11.20;55.90
68922;DHT22;55959;51.244;5.724;2023-04-15T01:58:48;11.20;56.00
68922;DHT22;55959;51.244;5.724;2023-04-15T02:01:14;11.10;56.20
68922;DHT22;55959;51.244;5.724;2023-04-15T02:03:41;11.10;56.90
68922;DHT22;55959;51.244;5.724;2023-04-15T02:06:07;11.10;57.10
68922;DHT22;55959;51.244;5.724;2023-04-15T02:08:33;11.10;57.30
68922;DHT22;55959;51.244;5.724;2023-04-15T02:10:59;11.10;57.40
68922;DHT22;55959;51.244;5.724;2023-04-15T02:13:25;11.00;57.50
68922;DHT22;55959;51.244;5.724;2023-04-15T02:15:51;11.00;57.50
68922;DHT22;55959;51.244;5.724;2023-04-15T02:18:17;11.00;57.50
68922;DHT22;55959;51.244;5.724;2023-04-15T02:20:44;11.00;57.50
68922;DHT22;55959;51.244;5.724;2023-04-15T02:23:11;11.00;57.40
68922;DHT22;55959;51.244;5.724;2023-04-15T02:25:37;10.90;57.30
68922;DHT22;55959;51.244;5.724;2023-04-15T02:28:04;10.90;57.20
68922;DHT22;55959;51.244;5.724;2023-04-15T02:30:31;10.90;57.10
68922;DHT22;55959;51.244;5.724;2023-04-15T02:33:00;10.90;57.00
68922;DHT22;55959;51.244;5.724;2023-04-15T02:35:26;10.90;57.00
68922;DHT22;55959;51.244;5.724;2023-04-15T02:37:52;10.90;57.00
68922;DHT22;55959;51.244;5.724;2023-04-15T02:40:17;10.80;56.80
68922;DHT22;55959;51.244;5.724;2023-04-15T02:42:43;10.80;56.80
68922;DHT22;55959;51.244;5.724;2023-04-15T02:45:09;10.80;56.80
68922;DHT22;55959;51.244;5.724;2023-04-15T02:47:37;10.70;56.80
68922;DHT22;55959;51.244;5.724;2023-04-15T02:50:09;10.80;56.70
68922;DHT22;55959;51.244;5.724;2023-04-15T02:52:41;10.70;56.70
68922;DHT22;55959;51.244;5.724;2023-04-15T02:55:07;10.70;56.70
68922;DHT22;55959;51.244;5.724;2023-04-15T02:57:34;10.70;56.70
68922;DHT22;55959;51.244;5.724;2023-04-15T03:00:05;10.70;56.70
68922;DHT22;55959;51.244;5.724;2023-04-15T03:02:35;10.60;57.30
68922;DHT22;55959;51.244;5.724;2023-04-15T03:05:01;10.60;56.70
68922;DHT22;55959;51.244;5.724;2023-04-15T03:07:27;10.60;56.70
68922;DHT22;55959;51.244;5.724;2023-04-15T03:09:53;10.60;56.70
68922;DHT22;55959;51.244;5.724;2023-04-15T03:12:18;10.50;56.70
68922;DHT22;55959;51.244;5.724;2023-04-15T03:14:44;10.50;56.80
68922;DHT22;55959;51.244;5.724;2023-04-15T03:17:10;10.40;56.90
68922;DHT22;55959;51.244;5.724;2023-04-15T03:19:36;10.40;57.00
68922;DHT22;55959;51.244;5.724;2023-04-15T03:22:01;10.40;57.20
68922;DHT22;55959;51.244;5.724;2023-04-15T03:24:27;10.40;57.30
68922;DHT22;55959;51.244;5.724;2023-04-15T03:26:55;10.40;57.50
68922;DHT22;55959;51.244;5.724;2023-04-15T03:29:22;10.30;57.60
68922;DHT22;55959;51.244;5.724;2023-04-15T03:31:48;10.30;57.80
68922;DHT22;55959;51.244;5.724;2023-04-15T03:34:13;10.30;57.90
68922;DHT22;55959;51.244;5.724;2023-04-15T03:36:39;10.30;58.00
68922;DHT22;55959;51.244;5.724;2023-04-15T03:39:05;10.20;58.00
68922;DHT22;55959;51.244;5.724;2023-04-15T03:41:31;10.20;58.10
68922;DHT22;55959;51.244;5.724;2023-04-15T03:43:58;10.20;58.20
68922;DHT22;55959;51.244;5.724;2023-04-15T03:46:24;10.10;58.30
68922;DHT22;55959;51.244;5.724;2023-04-15T03:48:49;10.20;58.40
68922;DHT22;55959;51.244;5.724;2023-04-15T03:51:15;10.10;58.40
68922;DHT22;55959;51.244;5.724;2023-04-15T03:53:41;10.10;58.50
68922;DHT22;55959;51.244;5.724;2023-04-15T03:56:07;10.10;58.70
68922;DHT22;55959;51.244;5.724;2023-04-15T03:58:33;10.10;58.80
68922;DHT22;55959;51.244;5.724;2023-04-15T04:00:59;10.10;58.90
68922;DHT22;55959;51.244;5.724;2023-04-15T04:03:25;10.00;58.90
68922;DHT22;55959;51.244;5.724;2023-04-15T04:05:51;10.00;58.90
68922;DHT22;55959;51.244;5.724;2023-04-15T04:08:17;10.00;58.90
68922;DHT22;55959;51.244;5.724;2023-04-15T04:10:43;10.00;59.00
68922;DHT22;55959;51.244;5.724;2023-04-15T04:13:09;10.00;59.00
68922;DHT22;55959;51.244;5.724;2023-04-15T04:15:35;9.90;59.00
68922;DHT22;55959;51.244;5.724;2023-04-15T04:18:01;9.90;59.00
68922;DHT22;55959;51.244;5.724;2023-04-15T04:20:26;9.90;59.00
68922;DHT22;55959;51.244;5.724;2023-04-15T04:22:52;9.90;59.00
68922;DHT22;55959;51.244;5.724;2023-04-15T04:25:18;9.90;59.00
68922;DHT22;55959;51.244;5.724;2023-04-15T04:27:44;9.80;59.00
68922;DHT22;55959;51.244;5.724;2023-04-15T04:30:10;9.80;59.00
68922;DHT22;55959;51.244;5.724;2023-04-15T04:32:36;9.80;59.00
68922;DHT22;55959;51.244;5.724;2023-04-15T04:35:03;9.80;58.90
68922;DHT22;55959;51.244;5.724;2023-04-15T04:37:29;9.80;58.90
68922;DHT22;55959;51.244;5.724;2023-04-15T04:39:55;9.80;59.00
68922;DHT22;55959;51.244;5.724;2023-04-15T04:42:21;9.70;58.90
68922;DHT22;55959;51.244;5.724;2023-04-15T04:44:47;9.70;59.00
68922;DHT22;55959;51.244;5.724;2023-04-15T04:47:12;9.70;58.90
68922;DHT22;55959;51.244;5.724;2023-04-15T04:49:38;9.70;59.00
68922;DHT22;55959;51.244;5.724;2023-04-15T04:52:05;9.70;59.00
68922;DHT22;55959;51.244;5.724;2023-04-15T04:54:31;9.70;59.10
68922;DHT22;55959;51.244;5.724;2023-04-15T04:56:57;9.60;59.10
68922;DHT22;55959;51.244;5.724;2023-04-15T04:59:23;9.60;59.20
68922;DHT22;55959;51.244;5.724;2023-04-15T05:01:49;9.60;59.20
68922;DHT22;55959;51.244;5.724;2023-04-15T05:04:15;9.60;59.30
68922;DHT22;55959;51.244;5.724;2023-04-15T05:06:41;9.60;59.40
68922;DHT22;55959;51.244;5.724;2023-04-15T05:09:07;9.50;59.50
68922;DHT22;55959;51.244;5.724;2023-04-15T05:11:32;9.50;59.50
68922;DHT22;55959;51.244;5.724;2023-04-15T05:13:58;9.50;59.50
68922;DHT22;55959;51.244;5.724;2023-04-15T05:16:26;9.50;59.50
68922;DHT22;55959;51.244;5.724;2023-04-15T05:18:51;9.50;59.60
68922;DHT22;55959;51.244;5.724;2023-04-15T05:21:17;9.50;59.80
68922;DHT22;55959;51.244;5.724;2023-04-15T05:23:43;9.50;59.90
68922;DHT22;55959;51.244;5.724;2023-04-15T05:26:09;9.50;60.00
68922;DHT22;55959;51.244;5.724;2023-04-15T05:28:35;9.40;60.10
68922;DHT22;55959;51.244;5.724;2023-04-15T05:31:00;9.50;60.40
68922;DHT22;55959;51.244;5.724;2023-04-15T05:33:26;9.50;60.90
68922;DHT22;55959;51.244;5.724;2023-04-15T05:35:52;9.50;61.40
68922;DHT22;55959;51.244;5.724;2023-04-15T05:38:18;9.60;61.80
68922;DHT22;55959;51.244;5.724;2023-04-15T05:40:43;9.60;62.00
68922;DHT22;55959;51.244;5.724;2023-04-15T05:43:09;9.70;62.20
68922;DHT22;55959;51.244;5.724;2023-04-15T05:45:35;9.70;62.20
68922;DHT22;55959;51.244;5.724;2023-04-15T05:48:01;9.80;62.20
68922;DHT22;55959;51.244;5.724;2023-04-15T05:50:26;9.80;62.10
68922;DHT22;55959;51.244;5.724;2023-04-15T05:52:52;9.90;62.10
68922;DHT22;55959;51.244;5.724;2023-04-15T05:55:18;9.90;62.00
68922;DHT22;55959;51.244;5.724;2023-04-15T05:57:43;9.90;61.90
68922;DHT22;55959;51.244;5.724;2023-04-15T06:00:10;10.00;61.90
68922;DHT22;55959;51.244;5.724;2023-04-15T06:02:36;10.00;61.80
68922;DHT22;55959;51.244;5.724;2023-04-15T06:05:02;10.00;61.70
68922;DHT22;55959;51.244;5.724;2023-04-15T06:07:28;10.10;61.80
68922;DHT22;55959;51.244;5.724;2023-04-15T06:09:54;10.10;61.80
68922;DHT22;55959;51.244;5.724;2023-04-15T06:12:21;10.20;61.80
68922;DHT22;55959;51.244;5.724;2023-04-15T06:14:46;10.20;61.90
68922;DHT22;55959;51.244;5.724;2023-04-15T06:17:12;10.30;62.20
68922;DHT22;55959;51.244;5.724;2023-04-15T06:19:39;10.40;62.40
68922;DHT22;55959;51.244;5.724;2023-04-15T06:22:05;10.40;62.60
68922;DHT22;55959;51.244;5.724;2023-04-15T06:24:31;10.50;62.80
68922;DHT22;55959;51.244;5.724;2023-04-15T06:26:57;10.60;62.80
68922;DHT22;55959;51.244;5.724;2023-04-15T06:29:23;10.70;63.10
68922;DHT22;55959;51.244;5.724;2023-04-15T06:31:48;10.90;63.30
68922;DHT22;55959;51.244;5.724;2023-04-15T06:34:15;11.00;63.30
68922;DHT22;55959;51.244;5.724;2023-04-15T06:36:41;11.10;63.20
68922;DHT22;55959;51.244;5.724;2023-04-15T06:39:07;11.30;63.30
68922;DHT22;55959;51.244;5.724;2023-04-15T06:41:33;11.40;64.10
68922;DHT22;55959;51.244;5.724;2023-04-15T06:43:59;11.60;63.20
68922;DHT22;55959;51.244;5.724;2023-04-15T06:46:25;11.70;63.00
68922;DHT22;55959;51.244;5.724;2023-04-15T06:48:51;11.90;62.70
68922;DHT22;55959;51.244;5.724;2023-04-15T06:51:16;12.00;62.30
68922;DHT22;55959;51.244;5.724;2023-04-15T06:53:42;12.20;62.20
68922;DHT22;55959;51.244;5.724;2023-04-15T06:56:08;12.30;62.30
68922;DHT22;55959;51.244;5.724;2023-04-15T06:58:35;12.50;62.50
68922;DHT22;55959;51.244;5.724;2023-04-15T07:01:01;12.70;63.10
68922;DHT22;55959;51.244;5.724;2023-04-15T07:03:26;12.90;63.30
68922;DHT22;55959;51.244;5.724;2023-04-15T07:05:52;13.20;63.20
68922;DHT22;55959;51.244;5.724;2023-04-15T07:08:19;13.40;62.70
68922;DHT22;55959;51.244;5.724;2023-04-15T07:10:48;13.60;62.30
68922;DHT22;55959;51.244;5.724;2023-04-15T07:13:13;13.80;61.40
68922;DHT22;55959;51.244;5.724;2023-04-15T07:15:40;14.00;60.50
68922;DHT22;55959;51.244;5.724;2023-04-15T07:18:05;14.20;59.70
68922;DHT22;55959;51.244;5.724;2023-04-15T07:20:31;14.30;59.20
68922;DHT22;55959;51.244;5.724;2023-04-15T07:22:57;14.40;58.80
68922;DHT22;55959;51.244;5.724;2023-04-15T07:25:23;14.40;57.90
68922;DHT22;55959;51.244;5.724;2023-04-15T07:27:49;14.50;57.80
68922;DHT22;55959;51.244;5.724;2023-04-15T07:30:15;14.50;57.60
68922;DHT22;55959;51.244;5.724;2023-04-15T07:32:41;14.50;57.40
68922;DHT22;55959;51.244;5.724;2023-04-15T07:35:07;14.50;57.40
68922;DHT22;55959;51.244;5.724;2023-04-15T07:37:34;14.50;57.30
68922;DHT22;55959;51.244;5.724;2023-04-15T07:40:00;14.50;57.30
68922;DHT22;55959;51.244;5.724;2023-04-15T07:42:26;14.40;57.20
68922;DHT22;55959;51.244;5.724;2023-04-15T07:44:54;14.40;57.30
68922;DHT22;55959;51.244;5.724;2023-04-15T07:47:20;14.30;57.50
68922;DHT22;55959;51.244;5.724;2023-04-15T07:49:46;14.30;57.40
68922;DHT22;55959;51.244;5.724;2023-04-15T07:52:12;14.20;57.60
68922;DHT22;55959;51.244;5.724;2023-04-15T07:54:37;14.20;57.80
68922;DHT22;55959;51.244;5.724;2023-04-15T07:57:04;14.20;58.00
68922;DHT22;55959;51.244;5.724;2023-04-15T07:59:32;14.20;58.10
68922;DHT22;55959;51.244;5.724;2023-04-15T08:01:58;14.10;58.10
68922;DHT22;55959;51.244;5.724;2023-04-15T08:04:24;14.20;58.20
68922;DHT22;55959;51.244;5.724;2023-04-15T08:06:49;14.10;58.20
68922;DHT22;55959;51.244;5.724;2023-04-15T08:09:16;14.10;58.00
68922;DHT22;55959;51.244;5.724;2023-04-15T08:11:42;14.10;58.10
68922;DHT22;55959;51.244;5.724;2023-04-15T08:14:09;14.10;58.20
68922;DHT22;55959;51.244;5.724;2023-04-15T08:16:36;14.10;58.30
68922;DHT22;55959;51.244;5.724;2023-04-15T08:19:01;14.10;57.60
68922;DHT22;55959;51.244;5.724;2023-04-15T08:21:28;14.10;57.40
68922;DHT22;55959;51.244;5.724;2023-04-15T08:23:55;14.10;57.00
68922;DHT22;55959;51.244;5.724;2023-04-15T08:26:21;14.10;57.30
68922;DHT22;55959;51.244;5.724;2023-04-15T08:28:47;14.10;57.50
68922;DHT22;55959;51.244;5.724;2023-04-15T08:31:15;14.20;57.00
68922;DHT22;55959;51.244;5.724;2023-04-15T08:33:41;14.20;56.90
68922;DHT22;55959;51.244;5.724;2023-04-15T08:36:07;14.30;57.00
68922;DHT22;55959;51.244;5.724;2023-04-15T08:38:34;14.30;56.60
68922;DHT22;55959;51.244;5.724;2023-04-15T08:41:25;14.30;56.40
68922;DHT22;55959;51.244;5.724;2023-04-15T08:46:22;14.40;56.00
68922;DHT22;55959;51.244;5.724;2023-04-15T08:48:49;14.40;55.30
68922;DHT22;55959;51.244;5.724;2023-04-15T08:51:16;14.40;55.60
68922;DHT22;55959;51.244;5.724;2023-04-15T08:53:49;14.40;55.80
68922;DHT22;55959;51.244;5.724;2023-04-15T08:56:27;14.50;55.90
68922;DHT22;55959;51.244;5.724;2023-04-15T08:59:00;14.60;56.10
68922;DHT22;55959;51.244;5.724;2023-04-15T09:01:28;14.60;55.40
68922;DHT22;55959;51.244;5.724;2023-04-15T09:03:55;14.60;55.10
68922;DHT22;55959;51.244;5.724;2023-04-15T09:06:22;14.60;55.10
68922;DHT22;55959;51.244;5.724;2023-04-15T09:08:49;14.70;55.40
68922;DHT22;55959;51.244;5.724;2023-04-15T09:11:15;14.70;55.50
68922;DHT22;55959;51.244;5.724;2023-04-15T09:13:42;14.70;55.30
68922;DHT22;55959;51.244;5.724;2023-04-15T09:16:08;14.70;55.00
68922;DHT22;55959;51.244;5.724;2023-04-15T09:18:36;14.80;55.50
68922;DHT22;55959;51.244;5.724;2023-04-15T09:21:07;14.80;55.30
68922;DHT22;55959;51.244;5.724;2023-04-15T09:23:38;14.90;55.00
68922;DHT22;55959;51.244;5.724;2023-04-15T09:26:05;14.90;54.50
68922;DHT22;55959;51.244;5.724;2023-04-15T09:28:31;15.00;53.90
68922;DHT22;55959;51.244;5.724;2023-04-15T09:30:59;15.00;54.00
68922;DHT22;55959;51.244;5.724;2023-04-15T09:33:28;15.10;54.20
68922;DHT22;55959;51.244;5.724;2023-04-15T09:36:03;15.10;54.20
68922;DHT22;55959;51.244;5.724;2023-04-15T09:38:31;15.10;54.00
68922;DHT22;55959;51.244;5.724;2023-04-15T09:40:58;15.20;53.90
68922;DHT22;55959;51.244;5.724;2023-04-15T09:43:37;15.30;54.40
68922;DHT22;55959;51.244;5.724;2023-04-15T09:46:04;15.30;53.90
68922;DHT22;55959;51.244;5.724;2023-04-15T09:48:30;15.40;53.10
68922;DHT22;55959;51.244;5.724;2023-04-15T09:50:59;15.40;52.60
68922;DHT22;55959;51.244;5.724;2023-04-15T09:53:26;15.40;53.00
68922;DHT22;55959;51.244;5.724;2023-04-15T09:55:53;15.50;53.30
68922;DHT22;55959;51.244;5.724;2023-04-15T09:58:24;15.60;53.80
68922;DHT22;55959;51.244;5.724;2023-04-15T10:00:53;15.60;53.20
68922;DHT22;55959;51.244;5.724;2023-04-15T10:03:21;15.70;52.90
68922;DHT22;55959;51.244;5.724;2023-04-15T10:05:59;15.70;52.90
68922;DHT22;55959;51.244;5.724;2023-04-15T10:08:29;15.80;52.90
68922;DHT22;55959;51.244;5.724;2023-04-15T10:10:57;15.80;53.20
68922;DHT22;55959;51.244;5.724;2023-04-15T10:13:25;15.90;53.30
68922;DHT22;55959;51.244;5.724;2023-04-15T10:16:13;16.00;53.10
68922;DHT22;55959;51.244;5.724;2023-04-15T10:18:46;16.10;52.20
68922;DHT22;55959;51.244;5.724;2023-04-15T10:21:13;16.10;52.30
68922;DHT22;55959;51.244;5.724;2023-04-15T10:23:47;16.20;52.40
68922;DHT22;55959;51.244;5.724;2023-04-15T10:26:14;16.30;52.50
68922;DHT22;55959;51.244;5.724;2023-04-15T10:28:42;16.30;51.50
68922;DHT22;55959;51.244;5.724;2023-04-15T10:31:14;16.40;51.40
68922;DHT22;55959;51.244;5.724;2023-04-15T10:33:41;16.40;51.70
68922;DHT22;55959;51.244;5.724;2023-04-15T10:36:07;16.50;52.20
68922;DHT22;55959;51.244;5.724;2023-04-15T10:38:40;16.60;52.40
68922;DHT22;55959;51.244;5.724;2023-04-15T10:46:22;16.80;50.70
68922;DHT22;55959;51.244;5.724;2023-04-15T10:48:51;16.80;50.70
68922;DHT22;55959;51.244;5.724;2023-04-15T10:51:38;16.90;51.30
68922;DHT22;55959;51.244;5.724;2023-04-15T10:54:13;17.00;51.20
68922;DHT22;55959;51.244;5.724;2023-04-15T10:56:42;17.10;50.80
68922;DHT22;55959;51.244;5.724;2023-04-15T10:59:10;17.10;50.30
68922;DHT22;55959;51.244;5.724;2023-04-15T11:01:52;17.20;50.00
68922;DHT22;55959;51.244;5.724;2023-04-15T11:07:41;17.30;48.50
68922;DHT22;55959;51.244;5.724;2023-04-15T11:12:53;17.30;47.40
68922;DHT22;55959;51.244;5.724;2023-04-15T11:15:30;17.30;47.30
68922;DHT22;55959;51.244;5.724;2023-04-15T11:20:39;17.30;48.40
68922;DHT22;55959;51.244;5.724;2023-04-15T11:23:09;17.30;48.80
68922;DHT22;55959;51.244;5.724;2023-04-15T11:25:36;17.40;49.30
68922;DHT22;55959;51.244;5.724;2023-04-15T11:28:02;17.50;49.60
68922;DHT22;55959;51.244;5.724;2023-04-15T11:30:32;17.50;49.40
68922;DHT22;55959;51.244;5.724;2023-04-15T11:33:06;17.60;49.60
68922;DHT22;55959;51.244;5.724;2023-04-15T11:35:33;17.70;49.50
68922;DHT22;55959;51.244;5.724;2023-04-15T11:38:11;17.70;49.40
68922;DHT22;55959;51.244;5.724;2023-04-15T11:40:42;17.80;48.70
68922;DHT22;55959;51.244;5.724;2023-04-15T11:46:00;17.90;49.50
68922;DHT22;55959;51.244;5.724;2023-04-15T11:48:28;17.90;48.60
68922;DHT22;55959;51.244;5.724;2023-04-15T11:51:00;18.00;48.90
68922;DHT22;55959;51.244;5.724;2023-04-15T11:53:47;18.00;49.30
68922;DHT22;55959;51.244;5.724;2023-04-15T11:56:21;18.10;47.10
68922;DHT22;55959;51.244;5.724;2023-04-15T11:58:56;18.10;47.60
68922;DHT22;55959;51.244;5.724;2023-04-15T12:01:32;18.10;47.70
68922;DHT22;55959;51.244;5.724;2023-04-15T12:04:14;18.10;47.70
68922;DHT22;55959;51.244;5.724;2023-04-15T12:06:42;18.10;47.80
68922;DHT22;55959;51.244;5.724;2023-04-15T12:09:15;18.10;48.00
68922;DHT22;55959;51.244;5.724;2023-04-15T12:11:56;18.10;48.20
68922;DHT22;55959;51.244;5.724;2023-04-15T12:14:27;18.10;48.40
68922;DHT22;55959;51.244;5.724;2023-04-15T12:19:41;18.20;48.30
68922;DHT22;55959;51.244;5.724;2023-04-15T12:22:11;18.20;48.50
68922;DHT22;55959;51.244;5.724;2023-04-15T12:24:40;18.20;47.70
68922;DHT22;55959;51.244;5.724;2023-04-15T12:27:11;18.20;48.10
68922;DHT22;55959;51.244;5.724;2023-04-15T12:29:39;18.20;48.50
68922;DHT22;55959;51.244;5.724;2023-04-15T12:32:14;18.30;48.40
68922;DHT22;55959;51.244;5.724;2023-04-15T12:34:43;18.40;48.50
68922;DHT22;55959;51.244;5.724;2023-04-15T12:37:11;18.40;48.40
68922;DHT22;55959;51.244;5.724;2023-04-15T12:39:40;18.50;48.60
68922;DHT22;55959;51.244;5.724;2023-04-15T12:42:08;18.50;48.40
68922;DHT22;55959;51.244;5.724;2023-04-15T12:44:34;18.60;48.10
68922;DHT22;55959;51.244;5.724;2023-04-15T12:47:01;18.70;48.20
68922;DHT22;55959;51.244;5.724;2023-04-15T12:49:27;18.80;48.20
68922;DHT22;55959;51.244;5.724;2023-04-15T12:51:55;18.80;47.90
68922;DHT22;55959;51.244;5.724;2023-04-15T12:54:22;18.90;48.00
68922;DHT22;55959;51.244;5.724;2023-04-15T12:56:49;19.00;47.70
68922;DHT22;55959;51.244;5.724;2023-04-15T12:59:15;19.00;47.50
68922;DHT22;55959;51.244;5.724;2023-04-15T13:01:43;19.10;47.40
68922;DHT22;55959;51.244;5.724;2023-04-15T13:04:09;19.20;47.10
68922;DHT22;55959;51.244;5.724;2023-04-15T13:06:35;19.20;46.60
68922;DHT22;55959;51.244;5.724;2023-04-15T13:09:04;19.20;46.30
68922;DHT22;55959;51.244;5.724;2023-04-15T13:11:30;19.30;46.00
68922;DHT22;55959;51.244;5.724;2023-04-15T13:14:04;19.40;45.20
68922;DHT22;55959;51.244;5.724;2023-04-15T13:16:32;19.40;45.90
68922;DHT22;55959;51.244;5.724;2023-04-15T13:18:59;19.40;46.10
68922;DHT22;55959;51.244;5.724;2023-04-15T13:21:25;19.50;46.10
68922;DHT22;55959;51.244;5.724;2023-04-15T13:23:51;19.50;46.20
68922;DHT22;55959;51.244;5.724;2023-04-15T13:26:18;19.50;45.90
68922;DHT22;55959;51.244;5.724;2023-04-15T13:28:44;19.60;45.70
68922;DHT22;55959;51.244;5.724;2023-04-15T13:31:10;19.60;45.40
68922;DHT22;55959;51.244;5.724;2023-04-15T13:33:37;19.60;45.80
68922;DHT22;55959;51.244;5.724;2023-04-15T13:36:03;19.60;45.60
68922;DHT22;55959;51.244;5.724;2023-04-15T13:38:29;19.60;46.20
68922;DHT22;55959;51.244;5.724;2023-04-15T13:40:55;19.60;45.30
68922;DHT22;55959;51.244;5.724;2023-04-15T13:43:20;19.60;45.30
68922;DHT22;55959;51.244;5.724;2023-04-15T13:45:46;19.60;45.30
68922;DHT22;55959;51.244;5.724;2023-04-15T13:48:12;19.70;45.90
68922;DHT22;55959;51.244;5.724;2023-04-15T13:50:38;19.70;45.20
68922;DHT22;55959;51.244;5.724;2023-04-15T13:53:04;19.70;45.20
68922;DHT22;55959;51.244;5.724;2023-04-15T13:55:30;19.70;45.30
68922;DHT22;55959;51.244;5.724;2023-04-15T13:57:56;19.80;45.50
68922;DHT22;55959;51.244;5.724;2023-04-15T14:00:22;19.80;44.60
68922;DHT22;55959;51.244;5.724;2023-04-15T14:02:47;19.80;44.90
68922;DHT22;55959;51.244;5.724;2023-04-15T14:05:14;19.80;45.00
68922;DHT22;55959;51.244;5.724;2023-04-15T14:07:40;19.80;44.80
68922;DHT22;55959;51.244;5.724;2023-04-15T14:10:06;19.80;44.80
68922;DHT22;55959;51.244;5.724;2023-04-15T14:12:32;19.90;44.80
68922;DHT22;55959;51.244;5.724;2023-04-15T14:14:58;19.90;44.70
68922;DHT22;55959;51.244;5.724;2023-04-15T14:17:24;19.90;44.70
68922;DHT22;55959;51.244;5.724;2023-04-15T14:19:50;19.90;44.90
68922;DHT22;55959;51.244;5.724;2023-04-15T14:22:15;20.00;44.70
68922;DHT22;55959;51.244;5.724;2023-04-15T14:24:43;20.00;44.60
68922;DHT22;55959;51.244;5.724;2023-04-15T14:27:09;20.00;44.30
68922;DHT22;55959;51.244;5.724;2023-04-15T14:29:37;20.00;43.90
68922;DHT22;55959;51.244;5.724;2023-04-15T14:32:03;20.00;43.80
68922;DHT22;55959;51.244;5.724;2023-04-15T14:34:29;20.00;43.80
68922;DHT22;55959;51.244;5.724;2023-04-15T14:36:55;20.00;44.00
68922;DHT22;55959;51.244;5.724;2023-04-15T14:39:21;20.00;44.00
68922;DHT22;55959;51.244;5.724;2023-04-15T14:41:47;20.10;43.40
68922;DHT22;55959;51.244;5.724;2023-04-15T14:44:13;20.10;43.60
68922;DHT22;55959;51.244;5.724;2023-04-15T14:46:39;20.10;43.30
68922;DHT22;55959;51.244;5.724;2023-04-15T14:49:05;20.20;43.50
68922;DHT22;55959;51.244;5.724;2023-04-15T14:51:32;20.20;43.50
68922;DHT22;55959;51.244;5.724;2023-04-15T14:53:58;20.20;43.30
68922;DHT22;55959;51.244;5.724;2023-04-15T14:56:25;20.20;43.50
68922;DHT22;55959;51.244;5.724;2023-04-15T14:58:51;20.20;43.80
68922;DHT22;55959;51.244;5.724;2023-04-15T15:01:19;20.20;43.70
68922;DHT22;55959;51.244;5.724;2023-04-15T15:03:45;20.20;43.70
68922;DHT22;55959;51.244;5.724;2023-04-15T15:06:11;20.20;43.70
68922;DHT22;55959;51.244;5.724;2023-04-15T15:08:37;20.20;43.70
68922;DHT22;55959;51.244;5.724;2023-04-15T15:11:03;20.10;43.30
68922;DHT22;55959;51.244;5.724;2023-04-15T15:13:29;20.10;43.40
68922;DHT22;55959;51.244;5.724;2023-04-15T15:15:56;20.00;43.00
68922;DHT22;55959;51.244;5.724;2023-04-15T15:18:21;20.00;43.30
68922;DHT22;55959;51.244;5.724;2023-04-15T15:20:49;20.00;43.20
68922;DHT22;55959;51.244;5.724;2023-04-15T15:23:15;19.90;43.10
68922;DHT22;55959;51.244;5.724;2023-04-15T15:25:41;19.90;43.00
68922;DHT22;55959;51.244;5.724;2023-04-15T15:28:07;19.80;43.10
68922;DHT22;55959;51.244;5.724;2023-04-15T15:30:32;19.80;43.10
68922;DHT22;55959;51.244;5.724;2023-04-15T15:32:58;19.70;43.00
68922;DHT22;55959;51.244;5.724;2023-04-15T15:35:24;19.60;43.00
68922;DHT22;55959;51.244;5.724;2023-04-15T15:37:51;19.60;43.30
68922;DHT22;55959;51.244;5.724;2023-04-15T15:40:16;19.50;43.40
68922;DHT22;55959;51.244;5.724;2023-04-15T15:42:42;19.50;43.60
68922;DHT22;55959;51.244;5.724;2023-04-15T15:45:08;19.40;43.60
68922;DHT22;55959;51.244;5.724;2023-04-15T15:47:34;19.40;43.80
68922;DHT22;55959;51.244;5.724;2023-04-15T15:50:00;19.30;44.00
68922;DHT22;55959;51.244;5.724;2023-04-15T15:52:26;19.30;44.20
68922;DHT22;55959;51.244;5.724;2023-04-15T15:54:52;19.30;44.20